Time;durP1;ratioP1;P1;durP2;ratioP2;P2;SDS_P1;SDS_P2;PMS_P1;PMS_P2;Temp;Humidity;BMP_temperature;BMP_pressure;BME280_temperature;BME280_humidity;BME280_pressure;Samples;Min_cycle;Max_cycle;Signal;HPM_P1;HPM_P2
2023/12/03 00:00:43;;;;;;;9.13;6.60;;;4.50;52.20;;;;;;5046435;28;20208;-50
2023/12/03 00:03:11;;;;;;;8.60;6.93;;;4.50;52.20;;;;;;5047640;28;20616;-49
2023/12/03 00:05:37;;;;;;;8.60;6.40;;;4.40;52.10;;;;;;5043825;28;20463;-51
2023/12/03 00:08:03;;;;;;;8.77;6.50;;;4.40;52.20;;;;;;5046364;28;20458;-51
2023/12/03 00:10:29;;;;;;;9.20;6.80;;;4.50;51.90;;;;;;5045825;28;20989;-52
2023/12/03 00:12:55;;;;;;;8.80;7.23;;;4.50;52.00;;;;;;5046083;28;20851;-51
2023/12/03 00:15:22;;;;;;;9.70;7.23;;;4.60;51.90;;;;;;5042752;28;20518;-50
2023/12/03 00:17:47;;;;;;;11.17;7.53;;;4.60;51.70;;;;;;5044934;28;20184;-51
2023/12/03 00:20:13;;;;;;;9.23;7.20;;;4.60;51.60;;;;;;5043247;28;20455;-52
2023/12/03 00:22:39;;;;;;;11.43;7.97;;;4.60;51.80;;;;;;5035709;28;20443;-50
2023/12/03 00:25:05;;;;;;;8.47;6.60;;;4.50;51.80;;;;;;5040062;28;20333;-52
2023/12/03 00:27:30;;;;;;;9.53;7.00;;;4.40;51.90;;;;;;5041850;28;20189;-50
2023/12/03 00:29:57;;;;;;;9.27;7.00;;;4.50;52.10;;;;;;5046625;28;21236;-48
2023/12/03 00:32:22;;;;;;;8.57;6.80;;;4.40;52.40;;;;;;5046176;28;20188;-49
2023/12/03 00:34:48;;;;;;;9.90;6.90;;;4.40;52.30;;;;;;5045729;28;20514;-48
2023/12/03 00:37:13;;;;;;;12.93;7.90;;;4.30;52.40;;;;;;5045602;28;20543;-52
2023/12/03 00:39:39;;;;;;;8.50;7.20;;;4.30;52.30;;;;;;5045243;28;20204;-49
2023/12/03 00:42:05;;;;;;;7.97;7.10;;;4.30;52.30;;;;;;5044702;28;20197;-50
2023/12/03 00:44:30;;;;;;;10.63;7.27;;;4.20;52.50;;;;;;5046037;28;20267;-50
2023/12/03 00:46:56;;;;;;;7.80;6.13;;;4.30;52.30;;;;;;5041611;28;20176;-50
2023/12/03 00:49:21;;;;;;;9.90;6.73;;;4.20;51.40;;;;;;5046855;28;20256;-51
2023/12/03 00:51:47;;;;;;;11.70;7.07;;;4.20;51.50;;;;;;5045383;28;20737;-48
2023/12/03 00:54:12;;;;;;;6.80;6.03;;;4.20;51.60;;;;;;5046000;28;20192;-52
2023/12/03 00:56:38;;;;;;;9.97;6.83;;;4.20;51.70;;;;;;5045893;28;20191;-54
2023/12/03 00:59:03;;;;;;;7.90;5.87;;;4.20;51.70;;;;;;5044892;28;20205;-53
2023/12/03 01:01:29;;;;;;;8.50;6.50;;;4.30;51.80;;;;;;5045819;28;20212;-51
2023/12/03 01:03:55;;;;;;;10.40;7.20;;;4.40;51.80;;;;;;5046052;28;20637;-51
2023/12/03 01:06:20;;;;;;;9.33;7.47;;;4.40;51.50;;;;;;5049213;28;20193;-51
2023/12/03 01:08:46;;;;;;;10.43;7.10;;;4.40;51.40;;;;;;5049588;28;20226;-49
2023/12/03 01:11:11;;;;;;;8.10;6.67;;;4.40;51.60;;;;;;5048891;28;20185;-54
2023/12/03 01:13:37;;;;;;;8.63;6.90;;;4.40;51.80;;;;;;5046783;28;20207;-51
2023/12/03 01:16:04;;;;;;;8.07;6.03;;;4.40;51.70;;;;;;5048452;28;20195;-52
2023/12/03 01:18:29;;;;;;;7.20;5.93;;;4.50;51.50;;;;;;5049299;28;20194;-51
2023/12/03 01:20:55;;;;;;;9.77;6.90;;;4.40;51.40;;;;;;5045706;28;20430;-48
2023/12/03 01:23:21;;;;;;;12.63;7.03;;;4.50;51.40;;;;;;5038763;28;20189;-52
2023/12/03 01:25:46;;;;;;;10.57;7.13;;;4.60;51.50;;;;;;5048983;28;20199;-51
2023/12/03 01:28:13;;;;;;;10.23;6.87;;;4.30;51.20;;;;;;5049804;28;20211;-53
2023/12/03 01:30:38;;;;;;;8.10;6.40;;;4.30;51.40;;;;;;5049992;28;20213;-52
2023/12/03 01:33:04;;;;;;;6.97;6.27;;;4.20;51.60;;;;;;5048684;28;20438;-52
2023/12/03 01:35:30;;;;;;;10.00;6.93;;;4.20;51.90;;;;;;5047165;28;20188;-53
2023/12/03 01:37:55;;;;;;;8.00;6.80;;;4.30;52.00;;;;;;5048821;28;20189;-51
2023/12/03 01:40:21;;;;;;;8.90;7.50;;;4.40;52.00;;;;;;5045187;28;20313;-51
2023/12/03 01:42:46;;;;;;;10.83;7.20;;;4.60;51.90;;;;;;5049060;28;20189;-50
2023/12/03 01:45:12;;;;;;;9.07;7.37;;;4.70;51.80;;;;;;5046742;28;20182;-51
2023/12/03 01:47:38;;;;;;;9.27;6.90;;;4.70;51.50;;;;;;5046151;28;20761;-48
2023/12/03 01:50:08;;;;;;;9.87;7.43;;;4.80;51.50;;;;;;5042904;28;20603;-53
2023/12/03 01:52:37;;;;;;;9.50;7.37;;;4.70;51.40;;;;;;5043041;28;20465;-50
2023/12/03 01:55:03;;;;;;;10.90;7.87;;;4.80;51.60;;;;;;5044438;28;20550;-50
2023/12/03 01:57:30;;;;;;;11.57;8.47;;;4.80;51.80;;;;;;5044602;28;21037;-51
2023/12/03 01:59:56;;;;;;;8.53;7.20;;;4.80;51.70;;;;;;5045057;28;20458;-54
2023/12/03 02:02:21;;;;;;;7.70;6.67;;;4.70;51.40;;;;;;5049024;28;20457;-50
2023/12/03 02:04:47;;;;;;;10.47;7.90;;;4.70;51.80;;;;;;5047816;28;20611;-52
2023/12/03 02:07:13;;;;;;;11.47;7.87;;;4.60;52.10;;;;;;5049693;28;20184;-51
2023/12/03 02:09:39;;;;;;;10.33;7.20;;;4.60;51.70;;;;;;5050158;28;20819;-50
2023/12/03 02:12:05;;;;;;;9.43;7.47;;;4.70;51.30;;;;;;5046992;28;20268;-52
2023/12/03 02:14:31;;;;;;;11.50;8.30;;;4.50;50.80;;;;;;5045360;28;20427;-50
2023/12/03 02:16:56;;;;;;;11.13;7.70;;;4.30;50.60;;;;;;5046876;28;20556;-51
2023/12/03 02:19:22;;;;;;;10.67;7.87;;;4.30;50.80;;;;;;5047935;28;20208;-49
2023/12/03 02:21:47;;;;;;;9.67;7.40;;;4.40;50.80;;;;;;5047074;28;20200;-50
2023/12/03 02:24:13;;;;;;;10.60;7.60;;;4.50;50.60;;;;;;5049222;28;20618;-49
2023/12/03 02:26:38;;;;;;;13.27;9.37;;;4.60;50.40;;;;;;5047043;28;20185;-51
2023/12/03 02:29:04;;;;;;;8.20;7.07;;;4.40;50.20;;;;;;5049078;28;20274;-49
2023/12/03 02:31:30;;;;;;;12.37;7.80;;;4.50;51.00;;;;;;5038989;28;20327;-54
2023/12/03 02:34:05;;;;;;;11.93;8.50;;;4.60;50.50;;;;;;5046296;28;20207;-49
2023/12/03 02:36:30;;;;;;;11.67;8.40;;;4.60;50.50;;;;;;5045274;28;20496;-49
2023/12/03 02:38:56;;;;;;;9.53;7.50;;;4.70;50.50;;;;;;5046769;28;20455;-48
2023/12/03 02:41:22;;;;;;;11.00;7.67;;;4.80;50.50;;;;;;5038643;28;20259;-50
2023/12/03 02:43:48;;;;;;;10.37;7.90;;;4.80;50.50;;;;;;5041170;28;20318;-49
2023/12/03 02:46:13;;;;;;;9.50;7.13;;;4.80;51.20;;;;;;5049082;28;21189;-50
2023/12/03 02:48:39;;;;;;;10.40;7.93;;;4.80;51.10;;;;;;5047486;28;20694;-51
2023/12/03 02:51:05;;;;;;;10.30;8.07;;;4.70;51.40;;;;;;5046579;28;20219;-50
2023/12/03 02:53:30;;;;;;;9.87;7.70;;;4.70;51.30;;;;;;5049237;28;20196;-51
2023/12/03 02:55:58;;;;;;;11.90;8.23;;;4.80;51.50;;;;;;5046545;28;20465;-51
2023/12/03 02:58:23;;;;;;;10.83;7.93;;;4.80;51.70;;;;;;5045564;28;20571;-53
2023/12/03 03:00:49;;;;;;;10.07;7.30;;;4.70;51.50;;;;;;5045977;28;20427;-51
2023/12/03 03:03:14;;;;;;;12.57;7.97;;;4.70;51.60;;;;;;5045448;28;20181;-50
2023/12/03 03:05:40;;;;;;;10.83;8.30;;;4.60;51.60;;;;;;5047804;28;20188;-51
2023/12/03 03:08:05;;;;;;;10.83;8.30;;;4.70;51.60;;;;;;5047771;28;20185;-49
2023/12/03 03:10:31;;;;;;;10.07;7.77;;;4.80;51.80;;;;;;5049206;28;20196;-51
2023/12/03 03:12:56;;;;;;;11.67;8.20;;;4.70;51.90;;;;;;5041445;28;20182;-52
2023/12/03 03:15:22;;;;;;;12.50;8.23;;;4.70;51.80;;;;;;5049492;28;20181;-50
2023/12/03 03:17:47;;;;;;;12.57;8.40;;;4.60;51.80;;;;;;5046359;28;20191;-52
2023/12/03 03:20:13;;;;;;;11.30;7.30;;;4.70;51.80;;;;;;5046675;28;20299;-51
2023/12/03 03:22:38;;;;;;;12.43;8.37;;;4.60;51.30;;;;;;5048257;28;20181;-52
2023/12/03 03:25:04;;;;;;;11.77;8.50;;;4.60;51.30;;;;;;5047042;28;20246;-51
2023/12/03 03:27:30;;;;;;;11.40;7.40;;;4.60;51.30;;;;;;5044544;28;20196;-50
2023/12/03 03:29:55;;;;;;;10.77;7.10;;;4.60;51.40;;;;;;5045595;28;20594;-50
2023/12/03 03:32:21;;;;;;;9.87;7.10;;;4.70;51.40;;;;;;5046038;28;20242;-48
2023/12/03 03:34:47;;;;;;;9.73;7.60;;;4.70;51.40;;;;;;5044831;28;20247;-50
2023/12/03 03:37:12;;;;;;;10.10;7.40;;;4.70;51.60;;;;;;5044498;28;21433;-51
2023/12/03 03:39:38;;;;;;;11.80;8.90;;;4.60;51.70;;;;;;5047755;28;20385;-52
2023/12/03 03:42:04;;;;;;;9.67;6.90;;;4.60;51.90;;;;;;5042415;28;20193;-51
2023/12/03 03:44:29;;;;;;;14.87;7.90;;;4.60;52.20;;;;;;5037619;28;20215;-51
2023/12/03 03:46:55;;;;;;;9.87;7.47;;;4.50;52.00;;;;;;5044722;28;20216;-47
2023/12/03 03:49:20;;;;;;;9.87;7.40;;;4.40;52.40;;;;;;5045268;28;20224;-52
2023/12/03 03:51:46;;;;;;;10.40;7.47;;;4.50;52.50;;;;;;5047794;28;20649;-51
2023/12/03 03:54:12;;;;;;;9.50;7.77;;;4.50;52.50;;;;;;5040620;28;20672;-54
2023/12/03 03:56:37;;;;;;;8.47;6.83;;;4.60;52.30;;;;;;5045105;28;20271;-54
2023/12/03 03:59:03;;;;;;;7.40;5.73;;;4.50;52.20;;;;;;5046795;28;20216;-51
2023/12/03 04:01:28;;;;;;;9.17;7.43;;;4.50;52.30;;;;;;5047733;28;20191;-51
2023/12/03 04:03:54;;;;;;;10.27;7.10;;;4.50;52.20;;;;;;5047535;28;20191;-51
2023/12/03 04:06:19;;;;;;;9.33;6.90;;;4.40;51.80;;;;;;5047461;28;20238;-54
2023/12/03 04:08:45;;;;;;;7.10;5.87;;;4.30;52.30;;;;;;5041863;28;20225;-51
2023/12/03 04:11:10;;;;;;;8.77;7.13;;;4.40;52.30;;;;;;5034197;28;20192;-50
2023/12/03 04:13:37;;;;;;;7.47;6.67;;;4.50;52.30;;;;;;5037347;28;20245;-53
2023/12/03 04:16:03;;;;;;;7.77;6.03;;;4.60;51.90;;;;;;5041131;28;21087;-52
2023/12/03 04:18:29;;;;;;;9.57;6.43;;;4.60;51.60;;;;;;5042832;28;20493;-52
2023/12/03 04:20:54;;;;;;;8.13;6.57;;;4.70;51.70;;;;;;5043819;28;20946;-52
2023/12/03 04:23:20;;;;;;;10.43;7.07;;;4.70;51.70;;;;;;5042436;28;20247;-54
2023/12/03 04:25:45;;;;;;;8.30;6.40;;;4.70;51.60;;;;;;5043744;28;20246;-54
2023/12/03 04:28:11;;;;;;;8.97;6.23;;;4.60;51.40;;;;;;5038414;28;20188;-50
2023/12/03 04:30:36;;;;;;;7.93;6.23;;;4.60;51.20;;;;;;5041308;28;20200;-50
2023/12/03 04:33:02;;;;;;;7.27;6.47;;;4.50;51.00;;;;;;5038763;28;20204;-53
2023/12/03 04:35:28;;;;;;;10.00;6.40;;;4.50;51.00;;;;;;5043034;28;20181;-54
2023/12/03 04:37:53;;;;;;;8.80;6.87;;;4.60;51.30;;;;;;5037906;28;20664;-51
2023/12/03 04:40:19;;;;;;;8.23;6.50;;;4.60;51.20;;;;;;5043313;28;20234;-54
2023/12/03 04:42:45;;;;;;;6.80;5.83;;;4.60;51.10;;;;;;5044367;28;20181;-51
2023/12/03 04:45:11;;;;;;;8.77;6.47;;;4.70;51.00;;;;;;5046268;28;20443;-52
2023/12/03 04:47:36;;;;;;;7.60;6.20;;;4.70;50.90;;;;;;5047466;28;20192;-52
2023/12/03 04:50:02;;;;;;;8.60;7.00;;;4.70;50.70;;;;;;5043334;28;20216;-54
2023/12/03 04:52:27;;;;;;;7.23;5.50;;;4.70;50.70;;;;;;5045092;28;20233;-54
2023/12/03 04:54:53;;;;;;;12.23;6.00;;;4.70;50.50;;;;;;5050113;28;20660;-52
2023/12/03 04:57:19;;;;;;;7.57;5.63;;;4.70;50.70;;;;;;5050296;28;20627;-50
2023/12/03 04:59:44;;;;;;;8.97;6.60;;;4.70;50.70;;;;;;5049574;28;20204;-54
2023/12/03 05:02:10;;;;;;;8.70;5.90;;;4.80;50.70;;;;;;5049886;28;20326;-52
2023/12/03 05:04:35;;;;;;;9.70;6.60;;;4.70;50.70;;;;;;5049918;28;20177;-50
2023/12/03 05:07:01;;;;;;;6.50;5.83;;;4.70;50.60;;;;;;5050286;28;20199;-53
2023/12/03 05:09:26;;;;;;;7.50;6.73;;;4.70;50.70;;;;;;5049750;28;20219;-53
2023/12/03 05:11:52;;;;;;;9.10;6.60;;;4.80;50.90;;;;;;5049245;28;20532;-53
2023/12/03 05:14:17;;;;;;;9.73;6.60;;;4.80;51.00;;;;;;5047994;28;20724;-50
2023/12/03 05:16:43;;;;;;;7.93;6.60;;;4.70;51.40;;;;;;5050492;28;20220;-54
2023/12/03 05:19:08;;;;;;;9.70;6.20;;;4.70;51.40;;;;;;5048849;28;20219;-52
2023/12/03 05:21:34;;;;;;;10.83;6.20;;;4.70;51.00;;;;;;5049185;28;20640;-54
2023/12/03 05:24:00;;;;;;;7.77;6.27;;;4.70;51.00;;;;;;5047786;28;20560;-49
2023/12/03 05:26:25;;;;;;;8.70;5.80;;;4.70;50.90;;;;;;5049681;28;20648;-53
2023/12/03 05:28:51;;;;;;;7.47;6.13;;;4.70;50.80;;;;;;5049051;28;20216;-53
2023/12/03 05:31:16;;;;;;;7.60;6.20;;;4.70;50.80;;;;;;5048463;28;20255;-53
2023/12/03 05:33:42;;;;;;;8.97;6.50;;;4.70;50.70;;;;;;5050211;28;20180;-49
2023/12/03 05:36:08;;;;;;;7.17;6.43;;;4.70;50.70;;;;;;5049619;28;20283;-53
2023/12/03 05:38:34;;;;;;;7.00;6.07;;;4.70;50.60;;;;;;5049132;28;20221;-51
2023/12/03 05:41:00;;;;;;;7.53;6.20;;;4.70;50.70;;;;;;5049900;28;20481;-53
2023/12/03 05:43:25;;;;;;;7.80;6.47;;;4.60;50.40;;;;;;5050100;28;20668;-51
2023/12/03 05:45:51;;;;;;;10.30;7.10;;;4.50;50.80;;;;;;5048667;28;20243;-53
2023/12/03 05:48:16;;;;;;;8.50;6.73;;;4.40;50.40;;;;;;5048064;28;20185;-50
2023/12/03 05:50:42;;;;;;;8.43;6.33;;;4.40;50.50;;;;;;5044112;28;20205;-50
2023/12/03 05:53:07;;;;;;;8.70;7.00;;;4.40;50.60;;;;;;5049507;28;20235;-50
2023/12/03 05:55:33;;;;;;;8.73;6.43;;;4.40;50.60;;;;;;5046705;28;20195;-52
2023/12/03 05:57:58;;;;;;;14.47;7.60;;;4.40;50.70;;;;;;5048278;28;20674;-53
2023/12/03 06:00:26;;;;;;;9.43;6.90;;;4.40;50.90;;;;;;5043208;28;20221;-54
2023/12/03 06:02:52;;;;;;;9.13;6.67;;;4.40;50.90;;;;;;5048731;28;20534;-53
2023/12/03 06:05:17;;;;;;;8.37;6.37;;;4.40;51.30;;;;;;5046809;28;20887;-52
2023/12/03 06:07:43;;;;;;;10.80;8.17;;;4.40;50.80;;;;;;5049220;28;20447;-52
2023/12/03 06:10:09;;;;;;;7.50;6.67;;;4.30;50.70;;;;;;5048882;28;20896;-52
2023/12/03 06:12:34;;;;;;;7.60;6.13;;;4.30;50.80;;;;;;5041543;28;20676;-50
2023/12/03 06:15:00;;;;;;;8.73;6.60;;;4.20;50.60;;;;;;5046897;28;20701;-53
2023/12/03 06:17:25;;;;;;;10.20;7.23;;;4.20;50.70;;;;;;5049534;28;20208;-52
2023/12/03 06:19:51;;;;;;;9.07;6.73;;;4.10;50.70;;;;;;5047467;28;20227;-53
2023/12/03 06:22:16;;;;;;;7.60;5.73;;;4.10;50.90;;;;;;5047428;28;20283;-54
2023/12/03 06:24:42;;;;;;;9.00;6.50;;;3.90;50.50;;;;;;5047719;28;20184;-53
2023/12/03 06:27:08;;;;;;;9.50;6.60;;;3.90;51.00;;;;;;5048248;28;20191;-52
2023/12/03 06:29:33;;;;;;;8.53;6.90;;;3.90;51.30;;;;;;5045890;28;20893;-54
2023/12/03 06:31:59;;;;;;;8.90;6.30;;;3.90;51.30;;;;;;5048934;28;20189;-52
2023/12/03 06:34:24;;;;;;;10.37;7.77;;;3.90;51.30;;;;;;5046401;28;20267;-51
2023/12/03 06:36:50;;;;;;;10.80;7.80;;;3.90;51.40;;;;;;5049249;28;20257;-50
2023/12/03 06:39:15;;;;;;;9.10;6.43;;;4.10;51.70;;;;;;5047189;28;20266;-54
2023/12/03 06:41:41;;;;;;;12.30;8.20;;;4.40;51.70;;;;;;5046101;28;20183;-53
2023/12/03 06:44:06;;;;;;;11.17;7.67;;;4.70;51.50;;;;;;5048422;28;20193;-50
2023/12/03 06:46:39;;;;;;;10.00;7.77;;;5.00;51.20;;;;;;5049892;28;20572;-50
2023/12/03 06:49:05;;;;;;;11.83;8.10;;;5.40;51.20;;;;;;5047635;28;20749;-52
2023/12/03 06:51:30;;;;;;;11.80;7.90;;;5.60;49.50;;;;;;5047882;28;20443;-55
2023/12/03 06:53:56;;;;;;;12.80;6.53;;;5.70;48.50;;;;;;5041940;28;20205;-53
2023/12/03 06:56:22;;;;;;;13.60;8.37;;;5.60;48.10;;;;;;5050074;28;20200;-51
2023/12/03 06:58:47;;;;;;;11.63;7.70;;;5.50;48.00;;;;;;5046288;28;20450;-56
2023/12/03 07:01:13;;;;;;;13.57;8.67;;;5.30;48.20;;;;;;5046062;28;20196;-56
2023/12/03 07:03:39;;;;;;;10.17;8.30;;;5.10;48.50;;;;;;5043063;28;20276;-51
2023/12/03 07:06:05;;;;;;;10.23;7.40;;;4.90;49.00;;;;;;5042250;28;20461;-51
2023/12/03 07:08:31;;;;;;;11.77;7.30;;;4.70;49.50;;;;;;5043308;28;20223;-50
2023/12/03 07:10:57;;;;;;;8.83;6.40;;;4.50;49.70;;;;;;5040432;28;20442;-53
2023/12/03 07:13:22;;;;;;;9.00;6.87;;;4.50;50.20;;;;;;5046828;28;20450;-54
2023/12/03 07:15:48;;;;;;;9.27;7.27;;;4.50;50.60;;;;;;5048418;28;20193;-52
2023/12/03 07:18:14;;;;;;;11.37;7.50;;;4.80;50.40;;;;;;5046731;28;20283;-55
2023/12/03 07:20:40;;;;;;;11.10;8.33;;;5.40;50.00;;;;;;5048883;28;20239;-51
2023/12/03 07:23:05;;;;;;;11.40;8.53;;;6.00;48.90;;;;;;5047130;28;20471;-54
2023/12/03 07:25:31;;;;;;;10.33;7.47;;;6.60;47.00;;;;;;5045942;28;20196;-50
2023/12/03 07:27:56;;;;;;;8.97;7.33;;;7.10;45.70;;;;;;5044784;28;20184;-51
2023/12/03 07:30:24;;;;;;;10.27;7.00;;;7.50;44.40;;;;;;5042945;28;20231;-54
2023/12/03 07:32:49;;;;;;;12.77;10.07;;;8.00;43.80;;;;;;5046984;28;20195;-55
2023/12/03 07:35:15;;;;;;;13.50;10.90;;;8.50;42.00;;;;;;5047324;28;20431;-55
2023/12/03 07:37:40;;;;;;;11.70;9.37;;;8.70;41.70;;;;;;5048374;28;20173;-54
2023/12/03 07:40:08;;;;;;;10.00;8.27;;;9.00;41.50;;;;;;5048066;28;20295;-54
2023/12/03 07:42:33;;;;;;;10.07;8.23;;;8.60;40.80;;;;;;5048403;28;20563;-54
2023/12/03 07:44:59;;;;;;;10.50;9.40;;;8.70;41.20;;;;;;5046276;28;20431;-54
2023/12/03 07:47:25;;;;;;;10.73;9.30;;;8.60;40.20;;;;;;5042781;28;20679;-52
2023/12/03 07:49:50;;;;;;;10.50;9.37;;;8.60;40.50;;;;;;5046098;28;21270;-54
2023/12/03 07:52:16;;;;;;;9.83;7.70;;;8.50;40.70;;;;;;5042314;28;20675;-53
2023/12/03 07:54:42;;;;;;;11.67;8.60;;;8.30;40.80;;;;;;5047433;28;20664;-54
2023/12/03 07:57:07;;;;;;;10.63;8.30;;;7.90;41.90;;;;;;5042805;28;20185;-51
2023/12/03 07:59:33;;;;;;;9.70;7.93;;;7.30;42.80;;;;;;5041022;28;20546;-52
2023/12/03 08:01:58;;;;;;;11.93;8.70;;;6.80;43.60;;;;;;5041329;28;20242;-55
2023/12/03 08:04:24;;;;;;;11.10;8.27;;;6.30;44.40;;;;;;5045923;28;20718;-55
2023/12/03 08:06:50;;;;;;;11.83;8.43;;;5.70;45.70;;;;;;5045784;28;20192;-53
2023/12/03 08:09:15;;;;;;;9.90;7.73;;;4.90;47.20;;;;;;5044229;28;20254;-53
2023/12/03 08:11:41;;;;;;;11.93;9.07;;;4.50;48.60;;;;;;5047464;28;20200;-53
2023/12/03 08:14:06;;;;;;;12.10;7.37;;;4.00;49.40;;;;;;5044766;28;20204;-51
2023/12/03 08:16:32;;;;;;;12.00;8.20;;;3.70;50.60;;;;;;5043423;28;20763;-50
2023/12/03 08:18:58;;;;;;;12.53;8.77;;;3.20;51.60;;;;;;5043151;28;21020;-55
2023/12/03 08:21:23;;;;;;;12.87;7.87;;;3.40;52.20;;;;;;5041829;28;20576;-50
2023/12/03 08:23:49;;;;;;;8.90;7.77;;;;;;;;;;5042464;28;20192;-55
2023/12/03 08:26:15;;;;;;;10.17;7.50;;;3.50;51.30;;;;;;5042273;28;20697;-51
2023/12/03 08:28:40;;;;;;;11.67;8.73;;;3.70;51.80;;;;;;5032274;28;20472;-52
2023/12/03 08:31:07;;;;;;;11.97;8.47;;;3.60;51.60;;;;;;5037454;28;20192;-51
2023/12/03 08:33:33;;;;;;;10.43;7.63;;;3.70;51.90;;;;;;5045891;28;20181;-51
2023/12/03 08:35:59;;;;;;;12.60;8.10;;;3.70;51.90;;;;;;5046074;28;20458;-54
2023/12/03 08:38:24;;;;;;;13.13;9.27;;;3.90;52.10;;;;;;5044815;28;20194;-52
2023/12/03 08:40:51;;;;;;;14.73;8.90;;;4.10;52.00;;;;;;5040101;28;20295;-52
2023/12/03 08:43:16;;;;;;;11.50;8.70;;;4.20;51.80;;;;;;5046512;28;20181;-54
2023/12/03 08:45:42;;;;;;;10.70;7.80;;;4.20;51.70;;;;;;5045355;28;20437;-57
2023/12/03 08:48:08;;;;;;;11.37;7.70;;;4.30;51.90;;;;;;5046840;28;20185;-53
2023/12/03 08:50:33;;;;;;;11.83;8.63;;;4.40;51.80;;;;;;5046546;28;20859;-55
2023/12/03 08:52:59;;;;;;;11.07;8.57;;;4.40;51.80;;;;;;5044021;28;20203;-54
2023/12/03 08:55:25;;;;;;;12.17;8.77;;;4.20;51.90;;;;;;5042166;28;20573;-53
2023/12/03 08:57:50;;;;;;;12.20;9.20;;;4.20;52.30;;;;;;5046996;28;20188;-55
2023/12/03 09:00:17;;;;;;;13.70;10.57;;;4.20;52.50;;;;;;5045810;28;20287;-54
2023/12/03 09:02:46;;;;;;;13.87;10.17;;;4.10;52.50;;;;;;5044638;28;20181;-56
2023/12/03 09:05:12;;;;;;;13.90;9.63;;;3.80;52.60;;;;;;5044325;28;20427;-55
2023/12/03 09:07:38;;;;;;;14.90;10.50;;;3.80;53.40;;;;;;5042039;28;21095;-52
2023/12/03 09:10:05;;;;;;;16.20;10.93;;;3.80;53.60;;;;;;5042992;28;20484;-55
2023/12/03 09:12:31;;;;;;;12.77;9.63;;;3.80;53.70;;;;;;5047879;28;20180;-56
2023/12/03 09:14:56;;;;;;;12.73;9.10;;;3.70;53.30;;;;;;5041218;28;20526;-55
2023/12/03 09:17:22;;;;;;;17.80;10.63;;;3.90;53.80;;;;;;5046738;28;20185;-54
2023/12/03 09:19:49;;;;;;;14.03;9.83;;;4.00;53.50;;;;;;5043561;28;20265;-55
2023/12/03 09:22:15;;;;;;;13.97;10.47;;;4.20;53.50;;;;;;5045649;28;20209;-54
2023/12/03 09:24:40;;;;;;;11.60;8.73;;;4.40;53.10;;;;;;5044943;28;20462;-57
2023/12/03 09:27:06;;;;;;;12.47;9.70;;;4.80;52.80;;;;;;5042368;28;21222;-55
2023/12/03 09:29:31;;;;;;;16.97;9.60;;;4.80;52.30;;;;;;5048308;28;20220;-56
2023/12/03 09:31:57;;;;;;;13.43;10.50;;;4.40;52.40;;;;;;5045862;28;20212;-54
2023/12/03 09:34:22;;;;;;;13.93;10.17;;;4.50;53.60;;;;;;5044744;28;20192;-54
2023/12/03 09:36:48;;;;;;;11.93;9.83;;;4.80;53.30;;;;;;5048317;28;20628;-55
2023/12/03 09:39:13;;;;;;;12.23;8.60;;;5.20;52.50;;;;;;5044267;28;20292;-56
2023/12/03 09:41:48;;;;;;;11.23;9.30;;;5.10;50.80;;;;;;5044047;28;20181;-55
2023/12/03 09:44:43;;;;;;;12.70;9.60;;;5.20;51.40;;;;;;5045771;28;20222;-55
2023/12/03 09:47:11;;;;;;;13.37;8.80;;;5.20;50.50;;;;;;5036195;28;20892;-54
2023/12/03 09:49:38;;;;;;;14.43;8.30;;;4.80;52.50;;;;;;5034756;28;20478;-52
2023/12/03 09:52:07;;;;;;;13.33;9.60;;;4.70;51.80;;;;;;5038031;28;20465;-54
2023/12/03 09:54:33;;;;;;;11.77;9.13;;;4.70;52.80;;;;;;5037421;28;20756;-50
2023/12/03 09:57:00;;;;;;;12.80;9.30;;;4.80;53.30;;;;;;5038768;28;20923;-57
2023/12/03 09:59:26;;;;;;;11.47;8.47;;;4.90;53.00;;;;;;5048599;28;21014;-51
2023/12/03 10:01:55;;;;;;;11.63;9.30;;;5.00;52.20;;;;;;5040539;28;20850;-53
2023/12/03 10:04:20;;;;;;;13.50;10.23;;;5.20;52.60;;;;;;5036444;28;20515;-52
2023/12/03 10:06:48;;;;;;;11.00;8.93;;;5.70;51.50;;;;;;5039045;28;20508;-55
2023/12/03 10:09:14;;;;;;;13.20;8.83;;;5.90;51.20;;;;;;5036488;28;20217;-53
2023/12/03 10:11:41;;;;;;;13.70;9.50;;;6.10;50.80;;;;;;5041436;28;20432;-51
2023/12/03 10:14:12;;;;;;;15.53;8.40;;;6.40;49.40;;;;;;5038093;28;20944;-52
2023/12/03 10:16:38;;;;;;;12.27;8.30;;;6.80;48.40;;;;;;5038462;28;20442;-55
2023/12/03 10:19:04;;;;;;;12.77;8.00;;;7.10;49.10;;;;;;5036974;28;20976;-55
2023/12/03 10:21:30;;;;;;;10.60;8.07;;;7.40;47.40;;;;;;5040669;28;20420;-57
2023/12/03 10:24:04;;;;;;;10.60;8.10;;;7.50;46.70;;;;;;5040997;28;20431;-51
2023/12/03 10:26:30;;;;;;;10.17;8.10;;;7.60;47.00;;;;;;5036507;28;20733;-55
2023/12/03 10:28:56;;;;;;;10.93;8.00;;;7.60;46.50;;;;;;5039707;28;20475;-54
2023/12/03 10:31:21;;;;;;;12.10;9.30;;;7.60;46.10;;;;;;5042389;28;20680;-51
2023/12/03 10:33:47;;;;;;;10.30;7.60;;;7.80;45.90;;;;;;5042583;28;20181;-53
2023/12/03 10:36:13;;;;;;;11.83;7.70;;;7.90;46.10;;;;;;5034334;28;20170;-53
2023/12/03 10:38:43;;;;;;;11.03;8.53;;;8.10;45.10;;;;;;5034947;28;20208;-50
2023/12/03 10:41:13;;;;;;;10.37;8.40;;;8.10;45.10;;;;;;5041841;28;20455;-53
2023/12/03 10:43:40;;;;;;;10.90;8.10;;;8.10;46.00;;;;;;5040884;28;20443;-54
2023/12/03 10:46:11;;;;;;;10.67;8.93;;;8.20;45.70;;;;;;5041620;28;20431;-51
2023/12/03 10:48:38;;;;;;;10.43;8.17;;;8.30;46.00;;;;;;5046661;28;21006;-53
2023/12/03 10:51:07;;;;;;;13.23;9.63;;;8.40;45.60;;;;;;5044415;28;20446;-51
2023/12/03 10:53:33;;;;;;;12.87;9.93;;;8.60;44.60;;;;;;5040882;28;21411;-56
2023/12/03 10:56:03;;;;;;;9.70;8.70;;;8.80;44.10;;;;;;5038662;28;20447;-53
2023/12/03 10:58:31;;;;;;;10.23;8.50;;;8.90;43.60;;;;;;5036746;28;20432;-53
2023/12/03 11:01:19;;;;;;;10.10;8.23;;;9.00;43.90;;;;;;5040319;28;21010;-53
2023/12/03 11:03:57;;;;;;;10.00;8.13;;;9.10;43.70;;;;;;5038037;28;20408;-56
2023/12/03 11:06:24;;;;;;;11.13;8.83;;;9.20;44.30;;;;;;5043783;28;20464;-55
2023/12/03 11:08:53;;;;;;;11.57;8.67;;;9.20;43.20;;;;;;5043920;28;21542;-53
2023/12/03 11:11:23;;;;;;;11.07;9.07;;;9.00;44.10;;;;;;5039283;28;20829;-52
2023/12/03 11:13:56;;;;;;;12.37;8.90;;;8.70;44.50;;;;;;5040747;28;20875;-56
2023/12/03 11:16:22;;;;;;;12.20;10.07;;;8.50;44.80;;;;;;5040301;28;20431;-53
2023/12/03 11:19:00;;;;;;;10.27;8.77;;;8.40;45.40;;;;;;5037801;28;20451;-54
2023/12/03 11:21:57;;;;;;;11.73;9.10;;;8.20;45.70;;;;;;5039403;28;20411;-50
2023/12/03 11:24:44;;;;;;;10.90;9.00;;;8.10;46.10;;;;;;5037267;28;20429;-55
2023/12/03 11:27:10;;;;;;;10.43;8.83;;;8.00;46.40;;;;;;5034646;28;20509;-55
2023/12/03 11:29:59;;;;;;;11.07;8.83;;;8.00;46.60;;;;;;5036290;28;20491;-51
2023/12/03 11:32:28;;;;;;;10.10;8.73;;;8.00;46.50;;;;;;5036179;28;20835;-56
2023/12/03 11:35:11;;;;;;;12.10;9.37;;;8.10;46.30;;;;;;5040243;28;20786;-50
2023/12/03 11:37:41;;;;;;;11.60;9.10;;;8.00;47.30;;;;;;5035308;28;20423;-52
2023/12/03 11:40:11;;;;;;;11.47;9.40;;;7.90;47.80;;;;;;5046504;28;20455;-50
2023/12/03 11:42:49;;;;;;;10.77;9.00;;;7.80;46.70;;;;;;5042128;28;20467;-50
2023/12/03 11:45:27;;;;;;;10.03;9.00;;;7.80;46.30;;;;;;5037265;28;20460;-51
2023/12/03 11:48:11;;;;;;;11.13;9.10;;;7.70;45.80;;;;;;5039097;28;20474;-55
2023/12/03 11:50:42;;;;;;;11.10;8.90;;;7.40;47.80;;;;;;5035434;28;20569;-49
2023/12/03 11:53:09;;;;;;;10.90;8.20;;;7.40;47.40;;;;;;5041612;28;20811;-51
2023/12/03 11:55:36;;;;;;;11.13;9.80;;;7.50;48.80;;;;;;5039234;28;20984;-50
2023/12/03 11:58:06;;;;;;;11.90;9.07;;;7.50;48.30;;;;;;5040870;28;20451;-51
2023/12/03 12:00:33;;;;;;;16.77;10.20;;;7.50;47.50;;;;;;5037706;28;20470;-53
2023/12/03 12:03:03;;;;;;;11.93;8.93;;;7.60;46.50;;;;;;5039826;28;20579;-53
2023/12/03 12:05:29;;;;;;;11.53;10.10;;;7.70;46.80;;;;;;5039489;28;20424;-53
2023/12/03 12:08:02;;;;;;;14.30;9.43;;;7.70;47.70;;;;;;5041656;28;20423;-51
2023/12/03 12:10:32;;;;;;;11.60;9.50;;;7.80;47.00;;;;;;5033002;28;20476;-56
2023/12/03 12:12:59;;;;;;;11.10;8.87;;;7.80;47.40;;;;;;5037231;28;20415;-55
2023/12/03 12:15:25;;;;;;;11.10;8.67;;;7.60;47.70;;;;;;5036396;28;20443;-52
2023/12/03 12:17:52;;;;;;;10.80;8.23;;;7.60;48.20;;;;;;5036864;28;20451;-51
2023/12/03 12:20:28;;;;;;;11.97;9.23;;;7.60;47.90;;;;;;5039869;28;20443;-52
2023/12/03 12:22:54;;;;;;;11.10;8.80;;;7.70;47.30;;;;;;5040856;28;20442;-51
2023/12/03 12:25:21;;;;;;;11.13;8.50;;;7.50;46.20;;;;;;5038136;28;20442;-51
2023/12/03 12:27:48;;;;;;;11.40;8.43;;;7.70;46.20;;;;;;5038343;28;20769;-51
2023/12/03 12:30:15;;;;;;;11.90;9.10;;;8.00;46.50;;;;;;5040800;28;20860;-53
2023/12/03 12:32:41;;;;;;;10.10;7.87;;;8.20;46.70;;;;;;5042509;28;20427;-50
2023/12/03 12:35:09;;;;;;;14.00;10.03;;;7.90;46.10;;;;;;5041533;28;20465;-50
2023/12/03 12:37:35;;;;;;;10.30;8.10;;;8.00;47.10;;;;;;5042136;28;20177;-54
2023/12/03 12:40:11;;;;;;;10.60;8.73;;;8.10;46.00;;;;;;5042973;28;20455;-50
2023/12/03 12:42:40;;;;;;;12.77;8.70;;;8.20;45.60;;;;;;5035808;28;20488;-51
2023/12/03 12:45:24;;;;;;;11.60;8.73;;;7.60;46.30;;;;;;5039877;28;20446;-52
2023/12/03 12:47:50;;;;;;;10.63;8.13;;;7.10;47.60;;;;;;5039823;28;20481;-51